createdAt,value
2022-11-27T00:00:49.637Z,5.25
2022-11-27T00:03:41.617Z,5.23
2022-11-27T00:06:16.093Z,5.17
2022-11-27T00:08:48.745Z,5.14
2022-11-27T00:11:22.585Z,5.10
2022-11-27T00:13:54.641Z,5.04
2022-11-27T00:16:27.494Z,5.00
2022-11-27T00:18:59.536Z,4.94
2022-11-27T00:21:33.341Z,4.91
2022-11-27T00:24:07.963Z,4.89
2022-11-27T00:26:39.542Z,4.86
2022-11-27T00:29:11.631Z,4.88
2022-11-27T00:31:43.241Z,4.91
2022-11-27T00:34:14.837Z,4.88
2022-11-27T00:36:48.258Z,4.87
2022-11-27T00:39:20.530Z,4.96
2022-11-27T00:41:52.013Z,5.01
2022-11-27T00:44:23.569Z,5.00
2022-11-27T00:46:55.101Z,4.99
2022-11-27T00:49:26.708Z,5.03
2022-11-27T00:51:58.294Z,5.04
2022-11-27T00:54:29.804Z,5.03
2022-11-27T00:57:01.418Z,5.01
2022-11-27T00:59:33.359Z,4.98
2022-11-27T01:02:04.976Z,4.94
2022-11-27T01:04:36.991Z,4.91
2022-11-27T01:07:08.611Z,4.87
2022-11-27T01:09:40.365Z,4.84
2022-11-27T01:12:11.914Z,4.86
2022-11-27T01:14:43.465Z,4.89
2022-11-27T01:17:14.931Z,4.92
2022-11-27T01:19:46.478Z,4.98
2022-11-27T01:22:18.032Z,5.03
2022-11-27T01:24:49.544Z,5.08
2022-11-27T01:27:21.101Z,5.09
2022-11-27T01:29:52.645Z,5.04
2022-11-27T01:32:24.288Z,4.91
2022-11-27T01:34:55.866Z,4.77
2022-11-27T01:37:27.419Z,4.75
2022-11-27T01:39:58.924Z,4.74
2022-11-27T01:42:30.439Z,4.74
2022-11-27T01:45:01.999Z,4.76
2022-11-27T01:47:40.832Z,4.77
2022-11-27T01:50:20.382Z,4.74
2022-11-27T01:52:56.905Z,4.67
2022-11-27T01:55:33.682Z,4.63
2022-11-27T01:58:10.602Z,4.63
2022-11-27T02:00:42.712Z,4.67
2022-11-27T02:03:14.297Z,4.70
2022-11-27T02:05:45.816Z,4.75
2022-11-27T02:08:19.111Z,4.82
2022-11-27T02:10:54.303Z,4.88
2022-11-27T02:13:31.741Z,4.94
2022-11-27T02:16:17.795Z,4.97
2022-11-27T02:18:55.940Z,4.95
2022-11-27T02:21:39.546Z,4.94
2022-11-27T02:24:34.511Z,4.92
2022-11-27T02:27:22.600Z,4.87
2022-11-27T02:30:00.567Z,4.77
2022-11-27T02:32:37.259Z,4.74
2022-11-27T02:35:13.873Z,4.70
2022-11-27T02:37:50.517Z,4.66
2022-11-27T02:40:27.175Z,4.64
2022-11-27T02:43:02.087Z,4.60
2022-11-27T02:45:37.055Z,4.56
2022-11-27T02:48:10.932Z,4.54
2022-11-27T02:50:45.265Z,4.58
2022-11-27T02:53:21.248Z,4.63
2022-11-27T02:55:54.572Z,4.69
2022-11-27T02:58:28.661Z,4.78
2022-11-27T03:01:01.209Z,4.84
2022-11-27T03:03:37.670Z,4.93
2022-11-27T03:06:12.977Z,4.98
2022-11-27T03:08:51.705Z,4.92
2022-11-27T03:11:24.778Z,4.83
2022-11-27T03:14:00.705Z,4.82
2022-11-27T03:16:40.856Z,4.82
2022-11-27T03:19:19.763Z,4.78
2022-11-27T03:21:54.837Z,4.69
2022-11-27T03:24:27.999Z,4.65
2022-11-27T03:27:00.095Z,4.61
2022-11-27T03:29:36.954Z,4.58
2022-11-27T03:32:08.913Z,4.54
2022-11-27T03:34:40.953Z,4.48
2022-11-27T03:37:13.271Z,4.46
2022-11-27T03:39:45.945Z,4.47
2022-11-27T03:42:24.477Z,4.48
2022-11-27T03:45:07.956Z,4.52
2022-11-27T03:47:49.792Z,4.54
2022-11-27T03:50:32.246Z,4.49
2022-11-27T03:53:13.773Z,4.56
2022-11-27T03:55:55.072Z,4.65
2022-11-27T03:58:33.668Z,4.70
2022-11-27T04:01:09.725Z,4.76
2022-11-27T04:03:41.679Z,4.78
2022-11-27T04:06:13.378Z,4.80
2022-11-27T04:08:46.844Z,4.77
2022-11-27T04:11:18.369Z,4.69
2022-11-27T04:13:52.087Z,4.61
2022-11-27T04:16:23.726Z,4.57
2022-11-27T04:18:55.582Z,4.54
2022-11-27T04:21:27.123Z,4.50
2022-11-27T04:23:58.685Z,4.45
2022-11-27T04:26:30.169Z,4.43
2022-11-27T04:29:02.688Z,4.42
2022-11-27T04:31:34.254Z,4.42
2022-11-27T04:34:05.952Z,4.43
2022-11-27T04:36:39.460Z,4.46
2022-11-27T04:39:13.149Z,4.53
2022-11-27T04:41:44.722Z,4.61
2022-11-27T04:44:16.635Z,4.66
2022-11-27T04:46:48.342Z,4.73
2022-11-27T04:49:19.973Z,4.79
2022-11-27T04:51:51.445Z,4.78
2022-11-27T04:54:24.732Z,4.71
2022-11-27T04:56:56.270Z,4.71
2022-11-27T04:59:27.825Z,4.72
2022-11-27T05:01:59.332Z,4.72
2022-11-27T05:04:30.888Z,4.70
2022-11-27T05:07:02.447Z,4.63
2022-11-27T05:09:34.020Z,4.57
2022-11-27T05:12:06.201Z,4.53
2022-11-27T05:14:38.257Z,4.46
2022-11-27T05:17:10.290Z,4.42
2022-11-27T05:19:41.809Z,4.38
2022-11-27T05:22:13.391Z,4.33
2022-11-27T05:24:45.281Z,4.23
2022-11-27T05:27:16.821Z,4.14
2022-11-27T05:29:48.324Z,4.17
2022-11-27T05:32:19.925Z,4.13
2022-11-27T05:34:51.534Z,4.12
2022-11-27T05:37:23.131Z,4.19
2022-11-27T05:39:54.659Z,4.20
2022-11-27T05:42:26.173Z,4.18
2022-11-27T05:44:58.606Z,4.21
2022-11-27T05:47:30.418Z,4.27
2022-11-27T05:50:01.963Z,4.27
2022-11-27T05:52:33.520Z,4.19
2022-11-27T05:55:05.865Z,4.09
2022-11-27T05:57:37.605Z,3.94
2022-11-27T06:00:11.769Z,3.87
2022-11-27T06:02:43.400Z,3.76
2022-11-27T06:05:15.243Z,3.68
2022-11-27T06:07:46.932Z,3.66
2022-11-27T06:10:18.976Z,3.65
2022-11-27T06:12:50.489Z,3.63
2022-11-27T06:15:22.179Z,3.60
2022-11-27T06:17:53.921Z,3.60
2022-11-27T06:20:25.564Z,3.60
2022-11-27T06:22:58.728Z,3.64
2022-11-27T06:25:30.483Z,3.70
2022-11-27T06:28:02.102Z,3.71
2022-11-27T06:30:33.933Z,3.72
2022-11-27T06:33:05.587Z,3.70
2022-11-27T06:35:38.277Z,3.67
2022-11-27T06:38:09.833Z,3.66
2022-11-27T06:40:41.488Z,3.67
2022-11-27T06:43:12.978Z,3.67
2022-11-27T06:45:44.525Z,3.65
2022-11-27T06:48:16.091Z,3.67
2022-11-27T06:50:47.651Z,3.64
2022-11-27T06:53:19.351Z,3.61
2022-11-27T06:55:51.130Z,3.63
2022-11-27T06:58:27.786Z,3.68
2022-11-27T07:01:03.415Z,3.70
2022-11-27T07:03:35.473Z,3.77
2022-11-27T07:06:09.232Z,3.86
2022-11-27T07:08:40.799Z,3.99
2022-11-27T07:11:15.269Z,4.11
2022-11-27T07:13:47.412Z,4.13
2022-11-27T07:16:20.158Z,4.16
2022-11-27T07:18:53.861Z,4.20
2022-11-27T07:21:24.239Z,4.22
2022-11-27T07:23:57.192Z,4.21
2022-11-27T07:26:31.171Z,4.14
2022-11-27T07:29:02.723Z,4.11
2022-11-27T07:31:34.341Z,4.04
2022-11-27T07:34:10.361Z,4.00
2022-11-27T07:36:45.882Z,3.97
2022-11-27T07:39:33.910Z,3.97
2022-11-27T07:45:01.638Z,3.99
2022-11-27T07:47:33.529Z,4.02
2022-11-27T07:50:07.273Z,4.04
2022-11-27T07:52:41.824Z,4.08
2022-11-27T07:55:14.019Z,4.10
2022-11-27T07:57:45.569Z,4.16
2022-11-27T08:00:18.840Z,4.22
2022-11-27T08:02:50.430Z,4.31
2022-11-27T08:05:21.963Z,4.35
2022-11-27T08:07:53.579Z,4.41
2022-11-27T08:10:25.141Z,4.45
2022-11-27T08:12:56.609Z,4.46
2022-11-27T08:15:28.124Z,4.47
2022-11-27T08:17:59.623Z,4.49
2022-11-27T08:20:31.201Z,4.48
2022-11-27T08:23:03.351Z,4.47
2022-11-27T08:25:34.966Z,4.43
2022-11-27T08:28:06.824Z,4.38
2022-11-27T08:30:38.341Z,4.37
2022-11-27T08:33:10.490Z,4.38
2022-11-27T08:35:42.028Z,4.41
2022-11-27T08:38:13.738Z,4.45
2022-11-27T08:40:45.334Z,4.51
2022-11-27T08:43:17.865Z,4.58
2022-11-27T08:45:49.799Z,4.64
2022-11-27T08:48:22.276Z,4.66
2022-11-27T08:50:54.429Z,4.73
2022-11-27T08:53:25.941Z,4.83
2022-11-27T08:56:05.571Z,4.88
2022-11-27T08:58:37.164Z,4.88
2022-11-27T09:01:17.815Z,4.90
2022-11-27T09:03:50.372Z,4.89
2022-11-27T09:06:24.781Z,4.89
2022-11-27T09:09:00.834Z,4.90
2022-11-27T09:11:34.077Z,4.92
2022-11-27T09:14:06.877Z,4.94
2022-11-27T09:16:38.631Z,4.94
2022-11-27T09:19:10.292Z,4.92
2022-11-27T09:21:41.832Z,4.95
2022-11-27T09:24:13.363Z,5.04
2022-11-27T09:26:45.873Z,5.15
2022-11-27T09:29:17.618Z,5.23
2022-11-27T09:31:49.281Z,5.35
2022-11-27T09:34:20.891Z,5.44
2022-11-27T09:36:52.416Z,5.52
2022-11-27T09:39:26.351Z,5.56
2022-11-27T09:42:00.175Z,5.62
2022-11-27T09:44:43.281Z,5.65
2022-11-27T09:47:20.957Z,5.59
2022-11-27T09:49:58.626Z,5.56
2022-11-27T09:52:38.388Z,5.54
2022-11-27T09:55:18.225Z,5.48
2022-11-27T09:57:59.269Z,5.51
2022-11-27T10:00:31.056Z,5.52
2022-11-27T10:03:02.857Z,5.52
2022-11-27T10:05:44.314Z,5.52
2022-11-27T10:08:36.223Z,5.59
2022-11-27T10:11:22.685Z,5.68
2022-11-27T10:14:07.043Z,5.70
2022-11-27T10:16:44.917Z,5.76
2022-11-27T10:19:29.956Z,5.84
2022-11-27T10:22:10.303Z,5.88
2022-11-27T10:24:47.506Z,5.93
2022-11-27T10:27:24.692Z,5.99
2022-11-27T10:29:58.603Z,6.04
2022-11-27T10:32:54.683Z,6.05
2022-11-27T10:35:27.784Z,6.05
2022-11-27T10:38:07.064Z,6.05
2022-11-27T10:40:44.877Z,6.04
2022-11-27T10:43:21.069Z,6.05
2022-11-27T10:45:55.930Z,6.02
2022-11-27T10:48:29.618Z,6.04
2022-11-27T10:51:00.440Z,6.05
2022-11-27T10:53:34.146Z,6.13
2022-11-27T10:56:19.060Z,6.19
2022-11-27T10:58:56.852Z,6.18
2022-11-27T11:01:30.812Z,6.09
2022-11-27T11:04:35.840Z,6.08
2022-11-27T11:07:02.296Z,6.12
2022-11-27T11:09:35.851Z,6.19
2022-11-27T11:12:18.943Z,6.26
2022-11-27T11:14:56.297Z,6.19
2022-11-27T11:17:34.314Z,6.19
2022-11-27T11:20:20.048Z,6.18
2022-11-27T11:22:52.675Z,6.16
2022-11-27T11:25:24.523Z,6.12
2022-11-27T11:27:56.557Z,6.01
2022-11-27T11:30:30.565Z,5.99
2022-11-27T11:33:05.232Z,6.05
2022-11-27T11:35:38.301Z,6.13
2022-11-27T11:38:19.466Z,6.21
2022-11-27T11:41:01.958Z,6.21
2022-11-27T11:43:35.972Z,6.23
2022-11-27T11:46:17.573Z,6.33
2022-11-27T11:49:01.835Z,6.33
2022-11-27T11:51:58.265Z,6.28
2022-11-27T11:54:50.433Z,6.32
2022-11-27T11:57:57.001Z,6.33
2022-11-27T12:00:58.456Z,6.40
2022-11-27T12:03:46.965Z,6.44
2022-11-27T12:06:46.618Z,6.54
2022-11-27T12:09:38.953Z,6.66
2022-11-27T12:12:21.203Z,6.84
2022-11-27T12:14:59.139Z,7.01
2022-11-27T12:17:44.075Z,7.14
2022-11-27T12:20:22.832Z,7.14
2022-11-27T12:23:22.105Z,7.09
2022-11-27T12:26:02.513Z,7.14
2022-11-27T12:28:54.451Z,7.29
2022-11-27T12:31:43.448Z,7.32
2022-11-27T12:34:24.986Z,7.49
2022-11-27T12:37:13.930Z,7.58
2022-11-27T12:39:58.932Z,7.62
2022-11-27T12:42:37.201Z,7.57
2022-11-27T12:45:16.504Z,7.59
2022-11-27T12:47:53.936Z,7.54
2022-11-27T12:50:40.705Z,7.38
2022-11-27T12:53:24.542Z,7.28
2022-11-27T12:56:08.053Z,7.29
2022-11-27T12:58:44.829Z,7.32
2022-11-27T13:01:26.429Z,7.24
2022-11-27T13:04:13.492Z,7.11
2022-11-27T13:06:54.699Z,7.06
2022-11-27T13:09:33.539Z,7.06
2022-11-27T13:12:06.882Z,6.95
2022-11-27T13:14:43.244Z,6.80
2022-11-27T13:17:18.007Z,6.75
2022-11-27T13:19:49.346Z,6.73
2022-11-27T13:22:28.520Z,6.71
2022-11-27T13:25:04.083Z,6.67
2022-11-27T13:27:37.528Z,6.59
2022-11-27T13:30:19.734Z,6.50
2022-11-27T13:32:54.814Z,6.30
2022-11-27T13:35:31.347Z,6.16
2022-11-27T13:38:10.598Z,6.07
2022-11-27T13:40:44.927Z,6.01
2022-11-27T13:43:28.801Z,6.00
2022-11-27T13:46:06.953Z,5.99
2022-11-27T13:48:42.324Z,5.91
2022-11-27T13:51:23.143Z,5.91
2022-11-27T13:53:55.399Z,5.93
2022-11-27T13:56:35.793Z,5.92
2022-11-27T13:59:18.395Z,5.85
2022-11-27T14:02:01.318Z,5.79
2022-11-27T14:04:33.932Z,5.72
2022-11-27T14:07:07.995Z,5.72
2022-11-27T14:09:42.328Z,5.72
2022-11-27T14:12:25.199Z,5.70
2022-11-27T14:15:07.592Z,5.62
2022-11-27T14:17:42.803Z,5.52
2022-11-27T14:20:29.944Z,5.51
2022-11-27T14:23:17.547Z,5.57
2022-11-27T14:25:49.158Z,5.64
2022-11-27T14:28:26.028Z,5.70
2022-11-27T14:30:59.812Z,5.73
2022-11-27T14:33:59.787Z,5.73
2022-11-27T14:36:30.223Z,5.72
2022-11-27T14:39:02.377Z,5.72
2022-11-27T14:41:34.528Z,5.75
2022-11-27T14:44:08.160Z,5.78
2022-11-27T14:46:39.927Z,5.78
2022-11-27T14:49:20.479Z,5.73
2022-11-27T14:51:52.964Z,5.65
2022-11-27T14:54:29.040Z,5.58
2022-11-27T14:57:01.084Z,5.52
2022-11-27T14:59:32.657Z,5.47
2022-11-27T15:02:17.867Z,5.42
2022-11-27T15:04:50.849Z,5.35
2022-11-27T15:07:29.286Z,5.26
2022-11-27T15:10:04.141Z,5.23
2022-11-27T15:12:40.651Z,5.17
2022-11-27T15:15:19.669Z,5.07
2022-11-27T15:17:54.553Z,5.15
2022-11-27T15:20:29.824Z,5.14
2022-11-27T15:23:02.459Z,5.18
2022-11-27T15:25:39.643Z,5.22
2022-11-27T15:28:36.830Z,5.25
2022-11-27T15:31:28.266Z,5.26
2022-11-27T15:34:06.539Z,5.35
2022-11-27T15:36:41.815Z,5.43
2022-11-27T15:39:22.425Z,5.48
2022-11-27T15:41:56.658Z,5.51
2022-11-27T15:44:30.090Z,5.53
2022-11-27T15:47:03.854Z,5.55
2022-11-27T15:49:35.789Z,5.48
2022-11-27T15:52:07.439Z,5.42
2022-11-27T15:54:39.213Z,5.39
2022-11-27T15:57:10.991Z,5.32
2022-11-27T15:59:42.491Z,5.25
2022-11-27T16:02:18.012Z,5.26
2022-11-27T16:04:51.014Z,5.22
2022-11-27T16:07:22.511Z,5.17
2022-11-27T16:09:54.442Z,5.12
2022-11-27T16:12:26.069Z,5.08
2022-11-27T16:14:57.615Z,5.05
2022-11-27T16:17:29.117Z,5.03
2022-11-27T16:20:00.707Z,4.99
2022-11-27T16:22:35.483Z,4.95
2022-11-27T16:25:09.992Z,4.98
2022-11-27T16:27:41.550Z,4.97
2022-11-27T16:30:15.371Z,4.97
2022-11-27T16:32:46.879Z,4.94
2022-11-27T16:35:18.705Z,4.94
2022-11-27T16:37:50.272Z,4.89
2022-11-27T16:40:21.968Z,4.90
2022-11-27T16:42:53.480Z,4.86
2022-11-27T16:45:25.198Z,4.79
2022-11-27T16:47:56.924Z,4.69
2022-11-27T16:50:30.205Z,4.58
2022-11-27T16:53:01.802Z,4.52
2022-11-27T16:55:33.402Z,4.51
2022-11-27T16:58:04.971Z,4.47
2022-11-27T17:00:36.534Z,4.49
2022-11-27T17:03:08.235Z,4.48
2022-11-27T17:05:40.885Z,4.48
2022-11-27T17:08:12.395Z,4.48
2022-11-27T17:10:47.739Z,4.44
2022-11-27T17:13:19.358Z,4.40
2022-11-27T17:15:50.904Z,4.39
2022-11-27T17:18:22.542Z,4.36
2022-11-27T17:20:54.138Z,4.29
2022-11-27T17:23:25.660Z,4.21
2022-11-27T17:25:57.338Z,4.12
2022-11-27T17:28:28.832Z,4.00
2022-11-27T17:31:00.291Z,3.94
2022-11-27T17:33:31.989Z,3.89
2022-11-27T17:36:03.887Z,3.84
2022-11-27T17:38:35.392Z,3.80
2022-11-27T17:41:09.283Z,3.75
2022-11-27T17:43:41.526Z,3.70
2022-11-27T17:46:17.168Z,3.68
2022-11-27T17:48:49.429Z,3.67
2022-11-27T17:51:21.494Z,3.70
2022-11-27T17:53:53.021Z,3.72
2022-11-27T17:56:24.602Z,3.80
2022-11-27T17:58:56.696Z,3.89
2022-11-27T18:01:30.292Z,4.00
2022-11-27T18:04:04.035Z,4.12
2022-11-27T18:06:35.925Z,4.20
2022-11-27T18:09:07.594Z,4.24
2022-11-27T18:11:39.670Z,4.20
2022-11-27T18:14:13.463Z,4.23
2022-11-27T18:16:44.996Z,4.24
2022-11-27T18:19:16.530Z,4.22
2022-11-27T18:21:48.026Z,4.23
2022-11-27T18:24:24.415Z,4.22
2022-11-27T18:27:12.527Z,4.18
2022-11-27T18:29:45.715Z,4.14
2022-11-27T18:32:18.679Z,4.13
2022-11-27T18:34:52.650Z,4.11
2022-11-27T18:37:24.518Z,4.08
2022-11-27T18:39:56.431Z,4.06
2022-11-27T18:42:30.240Z,4.04
2022-11-27T18:45:01.817Z,4.00
2022-11-27T18:47:33.833Z,3.97
2022-11-27T18:50:06.366Z,3.95
2022-11-27T18:52:38.059Z,3.94
2022-11-27T18:55:10.147Z,3.96
2022-11-27T18:57:41.634Z,3.98
2022-11-27T19:00:15.394Z,3.97
2022-11-27T19:02:47.002Z,4.00
2022-11-27T19:05:18.807Z,4.02
2022-11-27T19:07:50.577Z,4.11
2022-11-27T19:10:22.351Z,4.18
2022-11-27T19:12:53.892Z,4.18
2022-11-27T19:15:26.002Z,4.13
2022-11-27T19:17:57.841Z,4.09
2022-11-27T19:20:29.502Z,4.04
2022-11-27T19:23:01.140Z,3.96
2022-11-27T19:25:37.207Z,3.88
2022-11-27T19:28:10.374Z,3.76
2022-11-27T19:30:44.177Z,3.63
2022-11-27T19:33:15.702Z,3.53
2022-11-27T19:35:47.264Z,3.39
2022-11-27T19:38:18.995Z,3.27
2022-11-27T19:40:50.712Z,3.16
2022-11-27T19:43:22.325Z,3.07
2022-11-27T19:45:54.208Z,2.98
2022-11-27T19:48:25.895Z,2.89
2022-11-27T19:51:03.654Z,2.82
2022-11-27T19:53:36.152Z,2.77
2022-11-27T19:56:10.001Z,2.74
2022-11-27T19:58:41.967Z,2.76
2022-11-27T20:01:15.971Z,2.77
2022-11-27T20:03:48.073Z,2.77
2022-11-27T20:06:22.233Z,2.80
2022-11-27T20:08:55.897Z,2.80
2022-11-27T20:11:31.217Z,2.75
2022-11-27T20:14:06.826Z,2.77
2022-11-27T20:16:38.978Z,2.77
2022-11-27T20:19:10.697Z,2.74
2022-11-27T20:21:42.692Z,2.62
2022-11-27T20:24:14.727Z,2.56
2022-11-27T20:26:46.322Z,2.51
2022-11-27T20:29:18.261Z,2.44
2022-11-27T20:31:49.912Z,2.32
2022-11-27T20:34:22.928Z,2.20
2022-11-27T20:36:54.950Z,2.09
2022-11-27T20:39:28.456Z,2.00
2022-11-27T20:41:58.422Z,1.91
2022-11-27T20:44:29.932Z,1.82
2022-11-27T20:47:01.441Z,1.72
2022-11-27T20:49:33.942Z,1.64
2022-11-27T20:52:05.671Z,1.55
2022-11-27T20:54:37.286Z,1.46
2022-11-27T20:57:14.051Z,1.40
2022-11-27T20:59:45.604Z,1.36
2022-11-27T21:02:17.411Z,1.36
2022-11-27T21:04:48.985Z,1.36
2022-11-27T21:07:21.638Z,1.41
2022-11-27T21:09:53.351Z,1.42
2022-11-27T21:12:24.873Z,1.44
2022-11-27T21:14:56.340Z,1.50
2022-11-27T21:17:27.875Z,1.57
2022-11-27T21:20:01.407Z,1.62
2022-11-27T21:22:31.341Z,1.62
2022-11-27T21:25:03.136Z,1.62
2022-11-27T21:27:37.230Z,1.62
2022-11-27T21:30:10.693Z,1.56
2022-11-27T21:32:42.201Z,1.47
2022-11-27T21:35:13.647Z,1.37
2022-11-27T21:37:45.195Z,1.29
2022-11-27T21:40:17.628Z,1.25
2022-11-27T21:42:49.781Z,1.21
2022-11-27T21:45:21.517Z,1.16
2022-11-27T21:47:53.042Z,1.11
2022-11-27T21:50:24.580Z,1.05
2022-11-27T21:52:56.195Z,1.00
2022-11-27T21:55:28.049Z,0.92
2022-11-27T21:57:59.740Z,0.85
2022-11-27T22:00:31.395Z,0.79
2022-11-27T22:03:02.886Z,0.72
2022-11-27T22:05:34.487Z,0.64
2022-11-27T22:08:06.212Z,0.62
2022-11-27T22:10:41.833Z,0.63
2022-11-27T22:13:13.436Z,0.68
2022-11-27T22:15:44.984Z,0.72
2022-11-27T22:18:16.732Z,0.77
2022-11-27T22:20:48.417Z,0.83
2022-11-27T22:23:19.914Z,0.86
2022-11-27T22:25:51.454Z,0.90
2022-11-27T22:28:22.956Z,0.96
2022-11-27T22:30:54.581Z,0.98
2022-11-27T22:33:26.902Z,0.95
2022-11-27T22:35:58.584Z,0.94
2022-11-27T22:38:30.055Z,0.94
2022-11-27T22:41:01.899Z,0.92
2022-11-27T22:43:34.243Z,0.85
2022-11-27T22:46:09.534Z,0.78
2022-11-27T22:48:41.168Z,0.74
2022-11-27T22:51:13.369Z,0.68
2022-11-27T22:53:44.920Z,0.62
2022-11-27T22:56:16.770Z,0.56
2022-11-27T22:58:48.958Z,0.51
2022-11-27T23:01:22.441Z,0.47
2022-11-27T23:03:52.939Z,0.41
2022-11-27T23:06:25.891Z,0.35
2022-11-27T23:08:57.569Z,0.28
2022-11-27T23:11:30.150Z,0.21
2022-11-27T23:14:01.870Z,0.16
2022-11-27T23:16:33.973Z,0.13
2022-11-27T23:19:05.869Z,0.15
2022-11-27T23:21:39.029Z,0.17
2022-11-27T23:24:16.069Z,0.19
2022-11-27T23:26:47.608Z,0.23
2022-11-27T23:29:19.104Z,0.31
2022-11-27T23:31:50.632Z,0.37
2022-11-27T23:34:22.477Z,0.42
2022-11-27T23:36:53.975Z,0.48
2022-11-27T23:39:25.429Z,0.50
2022-11-27T23:41:56.970Z,0.46
2022-11-27T23:44:28.669Z,0.48
2022-11-27T23:47:00.305Z,0.50
2022-11-27T23:49:32.153Z,0.50
2022-11-27T23:52:03.733Z,0.55
2022-11-27T23:54:35.208Z,0.56
2022-11-27T23:57:06.800Z,0.58
2022-11-27T23:59:38.473Z,0.61
